sensor_id;sensor_type;location;lat;lon;timestamp;pressure;altitude;pressure_sealevel;temperature;humidity
13486;BME280;6815;59.336;17.998;2023-07-22T00:01:11;52125.09;;;-145.37;62.59
13486;BME280;6815;59.336;17.998;2023-07-22T00:03:36;52177.00;;;-145.37;62.80
13486;BME280;6815;59.336;17.998;2023-07-22T00:06:06;52157.03;;;-145.37;62.58
13486;BME280;6815;59.336;17.998;2023-07-22T00:08:33;52165.00;;;-145.37;63.46
13486;BME280;6815;59.336;17.998;2023-07-22T00:10:59;52242.88;;;-145.37;62.33
13486;BME280;6815;59.336;17.998;2023-07-22T00:13:25;52163.00;;;-145.37;62.75
13486;BME280;6815;59.336;17.998;2023-07-22T00:15:53;52234.88;;;-145.37;62.42
13486;BME280;6815;59.336;17.998;2023-07-22T00:18:18;52167.00;;;-145.37;62.30
13486;BME280;6815;59.336;17.998;2023-07-22T00:20:43;52149.03;;;-145.37;63.22
13486;BME280;6815;59.336;17.998;2023-07-22T00:23:09;52139.06;;;-145.37;62.48
13486;BME280;6815;59.336;17.998;2023-07-22T00:25:35;52163.00;;;-145.37;62.38
13486;BME280;6815;59.336;17.998;2023-07-22T00:28:00;52169.00;;;-145.37;62.17
13486;BME280;6815;59.336;17.998;2023-07-22T00:30:26;52182.97;;;-145.37;62.07
13486;BME280;6815;59.336;17.998;2023-07-22T00:32:53;52175.00;;;-145.37;61.72
13486;BME280;6815;59.336;17.998;2023-07-22T00:35:18;52139.06;;;-145.37;61.66
13486;BME280;6815;59.336;17.998;2023-07-22T00:37:44;52149.03;;;-145.37;62.24
13486;BME280;6815;59.336;17.998;2023-07-22T00:40:10;52161.03;;;-145.37;63.22
13486;BME280;6815;59.336;17.998;2023-07-22T00:42:38;52159.03;;;-145.37;63.08
13486;BME280;6815;59.336;17.998;2023-07-22T00:45:04;52188.97;;;-145.37;62.90
13486;BME280;6815;59.336;17.998;2023-07-22T00:47:32;52180.97;;;-145.37;62.95
13486;BME280;6815;59.336;17.998;2023-07-22T00:49:59;52119.09;;;-145.37;63.10
13486;BME280;6815;59.336;17.998;2023-07-22T00:52:26;52159.03;;;-145.37;63.04
13486;BME280;6815;59.336;17.998;2023-07-22T00:54:52;52143.06;;;-145.37;62.97
13486;BME280;6815;59.336;17.998;2023-07-22T00:57:18;52139.06;;;-145.37;62.14
13486;BME280;6815;59.336;17.998;2023-07-22T00:59:44;52177.00;;;-145.37;61.83
13486;BME280;6815;59.336;17.998;2023-07-22T01:02:10;52175.00;;;-145.37;61.40
13486;BME280;6815;59.336;17.998;2023-07-22T01:04:35;52139.06;;;-145.37;61.61
13486;BME280;6815;59.336;17.998;2023-07-22T01:07:03;52184.97;;;-145.37;60.92
13486;BME280;6815;59.336;17.998;2023-07-22T01:09:38;52173.00;;;-145.37;60.43
13486;BME280;6815;59.336;17.998;2023-07-22T01:12:05;52216.91;;;-145.37;60.18
13486;BME280;6815;59.336;17.998;2023-07-22T01:14:41;52175.00;;;-145.37;59.67
13486;BME280;6815;59.336;17.998;2023-07-22T01:17:08;52121.09;;;-145.37;59.21
13486;BME280;6815;59.336;17.998;2023-07-22T01:19:34;52157.03;;;-145.37;59.67
13486;BME280;6815;59.336;17.998;2023-07-22T01:22:01;52169.00;;;-145.37;59.79
13486;BME280;6815;59.336;17.998;2023-07-22T01:24:28;52147.03;;;-145.37;59.73
13486;BME280;6815;59.336;17.998;2023-07-22T01:26:54;52163.00;;;-145.37;59.38
13486;BME280;6815;59.336;17.998;2023-07-22T01:29:24;52153.03;;;-145.37;58.85
13486;BME280;6815;59.336;17.998;2023-07-22T01:31:54;52129.06;;;-145.37;59.39
13486;BME280;6815;59.336;17.998;2023-07-22T01:34:21;52171.00;;;-145.37;59.85
13486;BME280;6815;59.336;17.998;2023-07-22T01:36:47;52167.00;;;-145.37;60.36
13486;BME280;6815;59.336;17.998;2023-07-22T01:39:17;52186.97;;;-145.37;59.81
13486;BME280;6815;59.336;17.998;2023-07-22T01:41:43;52157.03;;;-145.37;59.28
13486;BME280;6815;59.336;17.998;2023-07-22T01:44:09;52157.03;;;-145.37;59.02
13486;BME280;6815;59.336;17.998;2023-07-22T01:46:36;52121.09;;;-145.37;58.93
13486;BME280;6815;59.336;17.998;2023-07-22T01:49:05;52171.00;;;-145.37;59.49
13486;BME280;6815;59.336;17.998;2023-07-22T01:51:31;52184.97;;;-145.37;59.85
13486;BME280;6815;59.336;17.998;2023-07-22T01:53:57;52161.03;;;-145.37;59.95
13486;BME280;6815;59.336;17.998;2023-07-22T01:56:23;52159.03;;;-145.37;59.17
13486;BME280;6815;59.336;17.998;2023-07-22T01:58:48;52149.03;;;-145.37;59.47
13486;BME280;6815;59.336;17.998;2023-07-22T02:01:14;52167.00;;;-145.37;59.13
13486;BME280;6815;59.336;17.998;2023-07-22T02:03:41;52196.94;;;-145.37;59.20
13486;BME280;6815;59.336;17.998;2023-07-22T02:06:07;52163.00;;;-145.37;59.39
13486;BME280;6815;59.336;17.998;2023-07-22T02:08:33;52178.97;;;-145.37;59.97
13486;BME280;6815;59.336;17.998;2023-07-22T02:11:04;52184.97;;;-145.37;59.56
13486;BME280;6815;59.336;17.998;2023-07-22T02:13:30;52177.00;;;-145.37;60.11
13486;BME280;6815;59.336;17.998;2023-07-22T02:15:55;52171.00;;;-145.37;60.54
13486;BME280;6815;59.336;17.998;2023-07-22T02:18:21;52175.00;;;-145.37;60.10
13486;BME280;6815;59.336;17.998;2023-07-22T02:20:46;52173.00;;;-145.37;59.76
13486;BME280;6815;59.336;17.998;2023-07-22T02:23:12;52173.00;;;-145.37;59.86
13486;BME280;6815;59.336;17.998;2023-07-22T02:25:37;52186.97;;;-145.37;60.22
13486;BME280;6815;59.336;17.998;2023-07-22T02:28:03;52163.00;;;-145.37;60.49
13486;BME280;6815;59.336;17.998;2023-07-22T02:30:29;52141.06;;;-145.37;60.16
13486;BME280;6815;59.336;17.998;2023-07-22T02:32:54;52161.03;;;-145.37;60.20
13486;BME280;6815;59.336;17.998;2023-07-22T02:35:20;52182.97;;;-145.37;60.75
13486;BME280;6815;59.336;17.998;2023-07-22T02:37:45;52208.94;;;-145.37;59.91
13486;BME280;6815;59.336;17.998;2023-07-22T02:40:10;52141.06;;;-145.37;60.27
13486;BME280;6815;59.336;17.998;2023-07-22T02:42:36;52139.06;;;-145.37;60.26
13486;BME280;6815;59.336;17.998;2023-07-22T02:45:02;52147.03;;;-145.37;60.10
13486;BME280;6815;59.336;17.998;2023-07-22T02:47:29;52155.03;;;-145.37;60.08
13486;BME280;6815;59.336;17.998;2023-07-22T02:49:54;52149.03;;;-145.37;60.28
13486;BME280;6815;59.336;17.998;2023-07-22T02:52:20;52147.03;;;-145.37;60.98
13486;BME280;6815;59.336;17.998;2023-07-22T02:57:32;52178.97;;;-145.37;61.20
13486;BME280;6815;59.336;17.998;2023-07-22T02:59:57;52182.97;;;-145.37;61.61
13486;BME280;6815;59.336;17.998;2023-07-22T03:02:23;52147.03;;;-145.37;61.45
13486;BME280;6815;59.336;17.998;2023-07-22T03:04:48;52139.06;;;-145.37;62.11
13486;BME280;6815;59.336;17.998;2023-07-22T03:07:13;52226.91;;;-145.37;61.56
13486;BME280;6815;59.336;17.998;2023-07-22T03:09:39;52240.88;;;-145.37;60.73
13486;BME280;6815;59.336;17.998;2023-07-22T03:12:05;52173.00;;;-145.37;61.06
13486;BME280;6815;59.336;17.998;2023-07-22T03:14:30;52180.97;;;-145.37;61.04
13486;BME280;6815;59.336;17.998;2023-07-22T03:17:01;52165.00;;;-145.37;61.20
13486;BME280;6815;59.336;17.998;2023-07-22T03:19:28;52153.03;;;-145.37;61.64
13486;BME280;6815;59.336;17.998;2023-07-22T03:21:54;52133.06;;;-145.37;61.66
13486;BME280;6815;59.336;17.998;2023-07-22T03:24:19;52137.06;;;-145.37;61.52
13486;BME280;6815;59.336;17.998;2023-07-22T03:26:45;52200.94;;;-145.37;62.20
13486;BME280;6815;59.336;17.998;2023-07-22T03:29:10;52139.06;;;-145.37;61.82
13486;BME280;6815;59.336;17.998;2023-07-22T03:31:36;52178.97;;;-145.37;61.78
13486;BME280;6815;59.336;17.998;2023-07-22T03:34:01;52180.97;;;-145.37;61.40
13486;BME280;6815;59.336;17.998;2023-07-22T03:36:26;52157.03;;;-145.37;61.37
13486;BME280;6815;59.336;17.998;2023-07-22T03:38:52;52198.94;;;-145.37;61.43
13486;BME280;6815;59.336;17.998;2023-07-22T03:41:17;52149.03;;;-145.37;61.64
13486;BME280;6815;59.336;17.998;2023-07-22T03:43:43;52125.09;;;-145.37;61.40
13486;BME280;6815;59.336;17.998;2023-07-22T03:46:09;52184.97;;;-145.37;62.00
13486;BME280;6815;59.336;17.998;2023-07-22T03:48:34;52171.00;;;-145.37;62.33
13486;BME280;6815;59.336;17.998;2023-07-22T03:51:00;52190.97;;;-145.37;62.61
13486;BME280;6815;59.336;17.998;2023-07-22T03:53:25;52161.03;;;-145.37;61.75
13486;BME280;6815;59.336;17.998;2023-07-22T03:55:50;52175.00;;;-145.37;60.94
13486;BME280;6815;59.336;17.998;2023-07-22T03:58:16;52145.03;;;-145.37;60.91
13486;BME280;6815;59.336;17.998;2023-07-22T04:00:42;52175.00;;;-145.37;61.78
13486;BME280;6815;59.336;17.998;2023-07-22T04:03:07;52200.94;;;-145.37;61.54
13486;BME280;6815;59.336;17.998;2023-07-22T04:05:32;52157.03;;;-145.37;61.07
13486;BME280;6815;59.336;17.998;2023-07-22T04:07:58;52177.00;;;-145.37;60.69
13486;BME280;6815;59.336;17.998;2023-07-22T04:10:23;52194.94;;;-145.37;61.15
13486;BME280;6815;59.336;17.998;2023-07-22T04:12:49;52127.09;;;-145.37;61.79
13486;BME280;6815;59.336;17.998;2023-07-22T04:15:14;52178.97;;;-145.37;61.13
13486;BME280;6815;59.336;17.998;2023-07-22T04:17:40;52256.84;;;-145.37;61.38
13486;BME280;6815;59.336;17.998;2023-07-22T04:20:06;52180.97;;;-145.37;61.43
13486;BME280;6815;59.336;17.998;2023-07-22T04:22:33;52165.00;;;-145.37;60.77
13486;BME280;6815;59.336;17.998;2023-07-22T04:24:59;52210.91;;;-145.37;61.02
13486;BME280;6815;59.336;17.998;2023-07-22T04:27:26;52155.03;;;-145.37;60.85
13486;BME280;6815;59.336;17.998;2023-07-22T04:29:52;52180.97;;;-145.37;60.55
13486;BME280;6815;59.336;17.998;2023-07-22T04:32:18;52145.03;;;-145.37;60.02
13486;BME280;6815;59.336;17.998;2023-07-22T04:34:43;52141.06;;;-145.37;60.07
13486;BME280;6815;59.336;17.998;2023-07-22T04:37:09;52165.00;;;-145.37;59.79
13486;BME280;6815;59.336;17.998;2023-07-22T04:39:34;52182.97;;;-145.37;59.75
13486;BME280;6815;59.336;17.998;2023-07-22T04:42:00;52165.00;;;-145.37;60.39
13486;BME280;6815;59.336;17.998;2023-07-22T04:44:27;52149.03;;;-145.37;61.29
13486;BME280;6815;59.336;17.998;2023-07-22T04:46:52;52180.97;;;-145.37;60.66
13486;BME280;6815;59.336;17.998;2023-07-22T04:49:17;52188.97;;;-145.37;60.72
13486;BME280;6815;59.336;17.998;2023-07-22T04:51:45;52141.06;;;-145.37;60.74
13486;BME280;6815;59.336;17.998;2023-07-22T04:54:11;52161.03;;;-145.37;60.67
13486;BME280;6815;59.336;17.998;2023-07-22T04:56:36;52198.94;;;-145.37;61.12
13486;BME280;6815;59.336;17.998;2023-07-22T04:59:02;52178.97;;;-145.37;61.11
13486;BME280;6815;59.336;17.998;2023-07-22T05:01:28;52177.00;;;-145.37;59.62
13486;BME280;6815;59.336;17.998;2023-07-22T05:03:54;52175.00;;;-145.37;59.75
13486;BME280;6815;59.336;17.998;2023-07-22T05:06:20;52163.00;;;-145.37;58.70
13486;BME280;6815;59.336;17.998;2023-07-22T05:08:46;52151.03;;;-145.37;58.18
13486;BME280;6815;59.336;17.998;2023-07-22T05:11:11;52125.09;;;-145.37;57.85
13486;BME280;6815;59.336;17.998;2023-07-22T05:13:37;52143.06;;;-145.37;57.34
13486;BME280;6815;59.336;17.998;2023-07-22T05:16:02;52186.97;;;-145.37;55.75
13486;BME280;6815;59.336;17.998;2023-07-22T05:18:28;52135.06;;;-145.37;55.35
13486;BME280;6815;59.336;17.998;2023-07-22T05:20:53;52169.00;;;-145.37;55.44
13486;BME280;6815;59.336;17.998;2023-07-22T05:23:18;52141.06;;;-145.37;55.08
13486;BME280;6815;59.336;17.998;2023-07-22T05:25:44;52173.00;;;-145.37;54.10
13486;BME280;6815;59.336;17.998;2023-07-22T05:28:15;52151.03;;;-145.37;54.13
13486;BME280;6815;59.336;17.998;2023-07-22T05:30:40;52107.13;;;-145.37;53.02
13486;BME280;6815;59.336;17.998;2023-07-22T05:33:05;52143.06;;;-145.37;52.05
13486;BME280;6815;59.336;17.998;2023-07-22T05:35:31;52143.06;;;-145.37;52.44
13486;BME280;6815;59.336;17.998;2023-07-22T05:37:56;52266.81;;;-145.37;51.72
13486;BME280;6815;59.336;17.998;2023-07-22T05:40:22;52149.03;;;-145.37;50.74
13486;BME280;6815;59.336;17.998;2023-07-22T05:42:47;52188.97;;;-145.37;50.68
13486;BME280;6815;59.336;17.998;2023-07-22T05:45:13;52129.06;;;-145.37;50.31
13486;BME280;6815;59.336;17.998;2023-07-22T05:47:40;52121.09;;;-145.37;49.53
13486;BME280;6815;59.336;17.998;2023-07-22T05:50:06;52133.06;;;-145.37;49.19
13486;BME280;6815;59.336;17.998;2023-07-22T05:52:32;52083.16;;;-145.37;49.03
13486;BME280;6815;59.336;17.998;2023-07-22T05:54:57;52113.09;;;-145.37;48.47
13486;BME280;6815;59.336;17.998;2023-07-22T05:57:22;52117.09;;;-145.37;47.83
13486;BME280;6815;59.336;17.998;2023-07-22T05:59:48;52099.13;;;-145.37;47.63
13486;BME280;6815;59.336;17.998;2023-07-22T06:02:13;52109.13;;;-145.37;47.84
13486;BME280;6815;59.336;17.998;2023-07-22T06:04:39;52129.06;;;-145.37;47.02
13486;BME280;6815;59.336;17.998;2023-07-22T06:07:04;52119.09;;;-145.37;46.45
13486;BME280;6815;59.336;17.998;2023-07-22T06:09:30;52121.09;;;-145.37;46.86
13486;BME280;6815;59.336;17.998;2023-07-22T06:11:55;52230.88;;;-145.37;46.55
13486;BME280;6815;59.336;17.998;2023-07-22T06:14:20;52107.13;;;-145.37;47.93
13486;BME280;6815;59.336;17.998;2023-07-22T06:16:46;52131.06;;;-145.37;47.12
13486;BME280;6815;59.336;17.998;2023-07-22T06:19:11;52125.09;;;-145.37;46.61
13486;BME280;6815;59.336;17.998;2023-07-22T06:21:37;52133.06;;;-145.37;46.67
13486;BME280;6815;59.336;17.998;2023-07-22T06:24:02;52113.09;;;-145.37;46.62
13486;BME280;6815;59.336;17.998;2023-07-22T06:26:27;52087.16;;;-145.37;47.68
13486;BME280;6815;59.336;17.998;2023-07-22T06:28:53;52157.03;;;-145.37;47.03
13486;BME280;6815;59.336;17.998;2023-07-22T06:31:18;52111.13;;;-145.37;46.60
13486;BME280;6815;59.336;17.998;2023-07-22T06:33:43;52139.06;;;-145.37;46.36
13486;BME280;6815;59.336;17.998;2023-07-22T06:36:09;52131.06;;;-145.37;46.65
13486;BME280;6815;59.336;17.998;2023-07-22T06:38:34;52184.97;;;-145.37;45.90
13486;BME280;6815;59.336;17.998;2023-07-22T06:41:00;52055.22;;;-145.37;46.19
13486;BME280;6815;59.336;17.998;2023-07-22T06:43:25;52101.13;;;-145.37;45.97
13486;BME280;6815;59.336;17.998;2023-07-22T06:45:50;52139.06;;;-145.37;45.29
13486;BME280;6815;59.336;17.998;2023-07-22T06:48:16;52123.09;;;-145.37;45.48
13486;BME280;6815;59.336;17.998;2023-07-22T06:50:49;52111.13;;;-145.37;45.84
13486;BME280;6815;59.336;17.998;2023-07-22T06:53:15;52125.09;;;-145.37;45.47
13486;BME280;6815;59.336;17.998;2023-07-22T06:55:53;52105.13;;;-145.37;45.81
13486;BME280;6815;59.336;17.998;2023-07-22T06:58:19;52127.09;;;-145.37;45.84
13486;BME280;6815;59.336;17.998;2023-07-22T07:00:45;52165.00;;;-145.37;44.92
13486;BME280;6815;59.336;17.998;2023-07-22T07:03:11;52151.03;;;-145.37;44.73
13486;BME280;6815;59.336;17.998;2023-07-22T07:05:36;52101.13;;;-145.37;44.59
13486;BME280;6815;59.336;17.998;2023-07-22T07:08:04;52127.09;;;-145.37;44.30
13486;BME280;6815;59.336;17.998;2023-07-22T07:10:30;52123.09;;;-145.37;44.04
13486;BME280;6815;59.336;17.998;2023-07-22T07:12:56;52085.16;;;-145.37;43.52
13486;BME280;6815;59.336;17.998;2023-07-22T07:15:23;52145.03;;;-145.37;43.08
13486;BME280;6815;59.336;17.998;2023-07-22T07:17:48;52115.09;;;-145.37;43.20
13486;BME280;6815;59.336;17.998;2023-07-22T07:20:14;52137.06;;;-145.37;42.51
13486;BME280;6815;59.336;17.998;2023-07-22T07:22:39;52115.09;;;-145.37;42.73
13486;BME280;6815;59.336;17.998;2023-07-22T07:25:05;52119.09;;;-145.37;42.73
13486;BME280;6815;59.336;17.998;2023-07-22T07:27:30;52107.13;;;-145.37;42.20
13486;BME280;6815;59.336;17.998;2023-07-22T07:29:56;52113.09;;;-145.37;42.55
13486;BME280;6815;59.336;17.998;2023-07-22T07:32:22;52141.06;;;-145.37;43.04
13486;BME280;6815;59.336;17.998;2023-07-22T07:34:49;52133.06;;;-145.37;42.52
13486;BME280;6815;59.336;17.998;2023-07-22T07:37:14;52206.94;;;-145.37;42.51
13486;BME280;6815;59.336;17.998;2023-07-22T07:39:39;52135.06;;;-145.37;42.99
13486;BME280;6815;59.336;17.998;2023-07-22T07:42:05;52125.09;;;-145.37;42.91
13486;BME280;6815;59.336;17.998;2023-07-22T07:44:31;52113.09;;;-145.37;43.05
13486;BME280;6815;59.336;17.998;2023-07-22T07:46:56;52123.09;;;-145.37;43.08
13486;BME280;6815;59.336;17.998;2023-07-22T07:49:21;52123.09;;;-145.37;43.13
13486;BME280;6815;59.336;17.998;2023-07-22T07:51:47;52157.03;;;-145.37;43.10
13486;BME280;6815;59.336;17.998;2023-07-22T07:54:12;52145.03;;;-145.37;43.46
13486;BME280;6815;59.336;17.998;2023-07-22T07:56:38;52133.06;;;-145.37;43.33
13486;BME280;6815;59.336;17.998;2023-07-22T07:59:03;52141.06;;;-145.37;43.48
13486;BME280;6815;59.336;17.998;2023-07-22T08:01:30;52133.06;;;-145.37;43.36
13486;BME280;6815;59.336;17.998;2023-07-22T08:03:56;52127.09;;;-145.37;43.24
13486;BME280;6815;59.336;17.998;2023-07-22T08:06:21;52155.03;;;-145.37;43.55
13486;BME280;6815;59.336;17.998;2023-07-22T08:08:47;52125.09;;;-145.37;43.43
13486;BME280;6815;59.336;17.998;2023-07-22T08:11:14;52083.16;;;-145.37;43.50
13486;BME280;6815;59.336;17.998;2023-07-22T08:13:41;52137.06;;;-145.37;42.60
13486;BME280;6815;59.336;17.998;2023-07-22T08:16:08;52135.06;;;-145.37;42.96
13486;BME280;6815;59.336;17.998;2023-07-22T08:18:35;52121.09;;;-145.37;42.55
13486;BME280;6815;59.336;17.998;2023-07-22T08:21:02;52109.13;;;-145.37;42.23
13486;BME280;6815;59.336;17.998;2023-07-22T08:23:28;52143.06;;;-145.37;42.27
13486;BME280;6815;59.336;17.998;2023-07-22T08:25:54;52117.09;;;-145.37;42.03
13486;BME280;6815;59.336;17.998;2023-07-22T08:28:19;52157.03;;;-145.37;41.70
13486;BME280;6815;59.336;17.998;2023-07-22T08:30:45;52131.06;;;-145.37;42.05
13486;BME280;6815;59.336;17.998;2023-07-22T08:33:11;52155.03;;;-145.37;42.04
13486;BME280;6815;59.336;17.998;2023-07-22T08:35:37;52151.03;;;-145.37;41.12
13486;BME280;6815;59.336;17.998;2023-07-22T08:38:03;52141.06;;;-145.37;39.51
13486;BME280;6815;59.336;17.998;2023-07-22T08:40:41;52121.09;;;-145.37;39.95
13486;BME280;6815;59.336;17.998;2023-07-22T08:43:08;52081.16;;;-145.37;40.45
13486;BME280;6815;59.336;17.998;2023-07-22T08:45:37;52141.06;;;-145.37;40.77
13486;BME280;6815;59.336;17.998;2023-07-22T08:48:09;52133.06;;;-145.37;41.22
13486;BME280;6815;59.336;17.998;2023-07-22T08:51:32;52123.09;;;-145.37;41.55
13486;BME280;6815;59.336;17.998;2023-07-22T08:53:39;52125.09;;;-145.37;41.62
13486;BME280;6815;59.336;17.998;2023-07-22T08:56:05;52113.09;;;-145.37;41.74
13486;BME280;6815;59.336;17.998;2023-07-22T08:58:31;52125.09;;;-145.37;42.06
13486;BME280;6815;59.336;17.998;2023-07-22T09:00:58;52115.09;;;-145.37;42.48
13486;BME280;6815;59.336;17.998;2023-07-22T09:03:24;52109.13;;;-145.37;43.07
13486;BME280;6815;59.336;17.998;2023-07-22T09:05:50;52129.06;;;-145.37;42.75
13486;BME280;6815;59.336;17.998;2023-07-22T09:08:15;52127.09;;;-145.37;43.08
13486;BME280;6815;59.336;17.998;2023-07-22T09:10:43;52143.06;;;-145.37;43.12
13486;BME280;6815;59.336;17.998;2023-07-22T09:13:09;52123.09;;;-145.37;43.20
13486;BME280;6815;59.336;17.998;2023-07-22T09:15:35;52155.03;;;-145.37;43.31
13486;BME280;6815;59.336;17.998;2023-07-22T09:18:03;52141.06;;;-145.37;43.67
13486;BME280;6815;59.336;17.998;2023-07-22T09:20:28;52141.06;;;-145.37;43.50
13486;BME280;6815;59.336;17.998;2023-07-22T09:22:54;52129.06;;;-145.37;43.87
13486;BME280;6815;59.336;17.998;2023-07-22T09:25:24;52145.03;;;-145.37;44.41
13486;BME280;6815;59.336;17.998;2023-07-22T09:27:59;52139.06;;;-145.37;44.90
13486;BME280;6815;59.336;17.998;2023-07-22T09:30:39;52141.06;;;-145.37;44.06
13486;BME280;6815;59.336;17.998;2023-07-22T09:33:21;52145.03;;;-145.37;44.20
13486;BME280;6815;59.336;17.998;2023-07-22T09:35:48;52143.06;;;-145.37;43.87
13486;BME280;6815;59.336;17.998;2023-07-22T09:38:15;52109.13;;;-145.37;44.33
13486;BME280;6815;59.336;17.998;2023-07-22T09:40:47;52192.97;;;-145.37;44.02
13486;BME280;6815;59.336;17.998;2023-07-22T09:43:12;52111.13;;;-145.37;44.41
13486;BME280;6815;59.336;17.998;2023-07-22T09:45:38;52105.13;;;-145.37;43.84
13486;BME280;6815;59.336;17.998;2023-07-22T09:48:03;52107.13;;;-145.37;43.68
13486;BME280;6815;59.336;17.998;2023-07-22T09:50:29;52109.13;;;-145.37;43.35
13486;BME280;6815;59.336;17.998;2023-07-22T09:52:56;52119.09;;;-145.37;43.12
13486;BME280;6815;59.336;17.998;2023-07-22T09:55:25;52099.13;;;-145.37;42.64
13486;BME280;6815;59.336;17.998;2023-07-22T09:57:54;52081.16;;;-145.37;42.94
13486;BME280;6815;59.336;17.998;2023-07-22T10:00:23;52129.06;;;-145.37;42.37
13486;BME280;6815;59.336;17.998;2023-07-22T10:02:51;52131.06;;;-145.37;42.22
13486;BME280;6815;59.336;17.998;2023-07-22T10:05:20;52077.19;;;-145.37;42.23
13486;BME280;6815;59.336;17.998;2023-07-22T10:07:48;52121.09;;;-145.37;42.87
13486;BME280;6815;59.336;17.998;2023-07-22T10:10:19;52101.13;;;-145.37;42.54
13486;BME280;6815;59.336;17.998;2023-07-22T10:12:45;52113.09;;;-145.37;42.80
13486;BME280;6815;59.336;17.998;2023-07-22T10:15:14;52109.13;;;-145.37;42.67
13486;BME280;6815;59.336;17.998;2023-07-22T10:17:41;52101.13;;;-145.37;43.29
13486;BME280;6815;59.336;17.998;2023-07-22T10:20:08;52113.09;;;-145.37;42.51
13486;BME280;6815;59.336;17.998;2023-07-22T10:22:43;52141.06;;;-145.37;42.52
13486;BME280;6815;59.336;17.998;2023-07-22T10:25:14;52131.06;;;-145.37;42.06
13486;BME280;6815;59.336;17.998;2023-07-22T10:27:41;52121.09;;;-145.37;42.23
13486;BME280;6815;59.336;17.998;2023-07-22T10:30:12;52145.03;;;-145.37;42.17
13486;BME280;6815;59.336;17.998;2023-07-22T10:32:46;52115.09;;;-145.37;41.96
13486;BME280;6815;59.336;17.998;2023-07-22T10:35:17;52125.09;;;-145.37;41.53
13486;BME280;6815;59.336;17.998;2023-07-22T10:37:47;52115.09;;;-145.37;41.48
13486;BME280;6815;59.336;17.998;2023-07-22T10:40:29;52099.13;;;-145.37;41.73
13486;BME280;6815;59.336;17.998;2023-07-22T10:45:29;52113.09;;;-145.37;42.19
13486;BME280;6815;59.336;17.998;2023-07-22T10:48:09;52159.03;;;-145.37;41.96
13486;BME280;6815;59.336;17.998;2023-07-22T10:50:45;52202.94;;;-145.37;41.62
13486;BME280;6815;59.336;17.998;2023-07-22T10:53:20;52151.03;;;-145.37;41.78
13486;BME280;6815;59.336;17.998;2023-07-22T10:58:55;52145.03;;;-145.37;41.70
13486;BME280;6815;59.336;17.998;2023-07-22T11:06:31;52107.13;;;-145.37;41.88
13486;BME280;6815;59.336;17.998;2023-07-22T11:08:57;52111.13;;;-145.37;41.33
13486;BME280;6815;59.336;17.998;2023-07-22T11:11:44;52107.13;;;-145.37;41.24
13486;BME280;6815;59.336;17.998;2023-07-22T11:14:14;52137.06;;;-145.37;41.17
13486;BME280;6815;59.336;17.998;2023-07-22T11:16:42;52119.09;;;-145.37;41.07
13486;BME280;6815;59.336;17.998;2023-07-22T11:19:08;52099.13;;;-145.37;41.68
13486;BME280;6815;59.336;17.998;2023-07-22T11:21:33;52109.13;;;-145.37;42.19
13486;BME280;6815;59.336;17.998;2023-07-22T11:23:58;52145.03;;;-145.37;41.91
13486;BME280;6815;59.336;17.998;2023-07-22T11:26:24;52085.16;;;-145.37;41.93
13486;BME280;6815;59.336;17.998;2023-07-22T11:28:49;52121.09;;;-145.37;41.30
13486;BME280;6815;59.336;17.998;2023-07-22T11:31:15;52137.06;;;-145.37;40.98
13486;BME280;6815;59.336;17.998;2023-07-22T11:33:41;52135.06;;;-145.37;40.80
13486;BME280;6815;59.336;17.998;2023-07-22T11:36:08;52095.16;;;-145.37;40.58
13486;BME280;6815;59.336;17.998;2023-07-22T11:38:34;52105.13;;;-145.37;40.58
13486;BME280;6815;59.336;17.998;2023-07-22T11:41:00;52099.13;;;-145.37;41.18
13486;BME280;6815;59.336;17.998;2023-07-22T11:43:26;52119.09;;;-145.37;41.00
13486;BME280;6815;59.336;17.998;2023-07-22T11:45:52;52111.13;;;-145.37;40.86
13486;BME280;6815;59.336;17.998;2023-07-22T11:48:17;52109.13;;;-145.37;40.77
13486;BME280;6815;59.336;17.998;2023-07-22T11:50:42;52127.09;;;-145.37;40.38
13486;BME280;6815;59.336;17.998;2023-07-22T11:53:08;52097.13;;;-145.37;40.66
13486;BME280;6815;59.336;17.998;2023-07-22T11:55:35;52262.81;;;-145.37;40.66
13486;BME280;6815;59.336;17.998;2023-07-22T11:58:01;52133.06;;;-145.37;40.72
13486;BME280;6815;59.336;17.998;2023-07-22T12:00:26;52061.22;;;-145.37;40.75
13486;BME280;6815;59.336;17.998;2023-07-22T12:02:52;52089.16;;;-145.37;40.58
13486;BME280;6815;59.336;17.998;2023-07-22T12:05:22;52105.13;;;-145.37;40.22
13486;BME280;6815;59.336;17.998;2023-07-22T12:07:47;52133.06;;;-145.37;40.05
13486;BME280;6815;59.336;17.998;2023-07-22T12:10:15;52103.13;;;-145.37;39.86
13486;BME280;6815;59.336;17.998;2023-07-22T12:12:42;52137.06;;;-145.37;39.61
13486;BME280;6815;59.336;17.998;2023-07-22T12:17:54;52113.09;;;-145.37;40.30
13486;BME280;6815;59.336;17.998;2023-07-22T12:20:28;52151.03;;;-145.37;40.14
13486;BME280;6815;59.336;17.998;2023-07-22T12:22:54;52065.19;;;-145.37;40.51
13486;BME280;6815;59.336;17.998;2023-07-22T12:25:20;52101.13;;;-145.37;40.60
13486;BME280;6815;59.336;17.998;2023-07-22T12:27:45;52137.06;;;-145.37;40.16
13486;BME280;6815;59.336;17.998;2023-07-22T12:30:11;52133.06;;;-145.37;40.34
13486;BME280;6815;59.336;17.998;2023-07-22T12:32:37;52141.06;;;-145.37;40.03
13486;BME280;6815;59.336;17.998;2023-07-22T12:35:03;52196.94;;;-145.37;40.02
13486;BME280;6815;59.336;17.998;2023-07-22T12:37:29;52057.22;;;-145.37;40.34
13486;BME280;6815;59.336;17.998;2023-07-22T12:39:55;52083.16;;;-145.37;39.88
13486;BME280;6815;59.336;17.998;2023-07-22T12:42:20;52087.16;;;-145.37;39.68
13486;BME280;6815;59.336;17.998;2023-07-22T12:44:46;52089.16;;;-145.37;39.31
13486;BME280;6815;59.336;17.998;2023-07-22T12:47:11;52097.13;;;-145.37;39.72
13486;BME280;6815;59.336;17.998;2023-07-22T12:49:36;52073.19;;;-145.37;39.47
13486;BME280;6815;59.336;17.998;2023-07-22T12:52:02;52097.13;;;-145.37;39.80
13486;BME280;6815;59.336;17.998;2023-07-22T12:54:30;52061.22;;;-145.37;39.22